UKDE/OZH METAR and TAF weather

Enter ICAO airport designator
Station Type Date Time Source
UKDE METAR 2019/06/19 06:30 UTC NOAA

UKDE 190630Z 36003MPS 310V050 CAVOK 28/20 Q1013 R02R/090070 NOSIG


Station Type Date Time Source
UKDE Decoded METAR 2019/06/19 06:30 UTC NOAA

Zaporizhzhia / Mokraya, Ukraine (UKDE) 47-52-02N 035-18-59E
Jun 19, 2019 - 02:30 AM EDT / 2019.06.19 0630 UTC
Wind: from the N (360 degrees) at 7 MPH (6 KT) (direction variable):0
Visibility: greater than 7 mile(s):0
Temperature: 82 F (28 C)
Dew Point: 68 F (20 C)
Relative Humidity: 61%
Pressure (altimeter): 29.91 in. Hg (1013 hPa)
ob: UKDE 190630Z 36003MPS 310V050 CAVOK 28/20 Q1013 R02R/090070 NOSIG
cycle: 6

Station Type Date Time Source
UKDE TAF 2019/03/22 16:42 UTC NOAA

TAF
AMD TAF
AMD UKDE 221637Z 2216/2324 26009MPS 9999 BKN030CB TX10/2216Z TN03/2224Z
TEMPO 2216/2219 26011G16MPS 2100 -TSRA BKN010 BKN015CB
BECMG 2219/2221 29006MPS

Example: see airport list